Map

Track Data

SID SEASON NUMBER BASIN SUBBASIN NAME ISO_TIME NATURE LAT LON WMO_WIND WMO_PRES WMO_AGENCY TRACK_TYPE DIST2LAND LANDFALL IFLAG USA_AGENCY USA_ATCF_ID USA_LAT USA_LON USA_RECORD USA_STATUS USA_WIND USA_PRES USA_SSHS USA_R34_NE USA_R34_SE USA_R34_SW USA_R34_NW USA_R50_NE USA_R50_SE USA_R50_SW USA_R50_NW USA_R64_NE USA_R64_SE USA_R64_SW USA_R64_NW USA_POCI USA_ROCI USA_RMW USA_EYE TOKYO_LAT TOKYO_LON TOKYO_GRADE TOKYO_WIND TOKYO_PRES TOKYO_R50_DIR TOKYO_R50_LONG TOKYO_R50_SHORT TOKYO_R30_DIR TOKYO_R30_LONG TOKYO_R30_SHORT TOKYO_LAND CMA_LAT CMA_LON CMA_CAT CMA_WIND CMA_PRES HKO_LAT HKO_LON HKO_CAT HKO_WIND HKO_PRES NEWDELHI_LAT NEWDELHI_LON NEWDELHI_GRADE NEWDELHI_WIND NEWDELHI_PRES NEWDELHI_CI NEWDELHI_DP NEWDELHI_POCI REUNION_LAT REUNION_LON REUNION_TYPE REUNION_WIND REUNION_PRES REUNION_TNUM REUNION_CI REUNION_RMW REUNION_R34_NE REUNION_R34_SE REUNION_R34_SW REUNION_R34_NW REUNION_R50_NE REUNION_R50_SE REUNION_R50_SW REUNION_R50_NW REUNION_R64_NE REUNION_R64_SE REUNION_R64_SW REUNION_R64_NW BOM_LAT BOM_LON BOM_TYPE BOM_WIND BOM_PRES BOM_TNUM BOM_CI BOM_RMW BOM_R34_NE BOM_R34_SE BOM_R34_SW BOM_R34_NW BOM_R50_NE BOM_R50_SE BOM_R50_SW BOM_R50_NW BOM_R64_NE BOM_R64_SE BOM_R64_SW BOM_R64_NW BOM_ROCI BOM_POCI BOM_EYE BOM_POS_METHOD BOM_PRES_METHOD NADI_LAT NADI_LON NADI_CAT NADI_WIND NADI_PRES WELLINGTON_LAT WELLINGTON_LON WELLINGTON_WIND WELLINGTON_PRES DS824_LAT DS824_LON DS824_STAGE DS824_WIND DS824_PRES TD9636_LAT TD9636_LON TD9636_STAGE TD9636_WIND TD9636_PRES TD9635_LAT TD9635_LON TD9635_WIND TD9635_PRES TD9635_ROCI NEUMANN_LAT NEUMANN_LON NEUMANN_CLASS NEUMANN_WIND NEUMANN_PRES MLC_LAT MLC_LON MLC_CLASS MLC_WIND MLC_PRES USA_GUST BOM_GUST BOM_GUST_PER REUNION_GUST REUNION_GUST_PER USA_SEAHGT USA_SEARAD_NE USA_SEARAD_SE USA_SEARAD_SW USA_SEARAD_NW STORM_SPEED STORM_DIR
1962053S26048 1962 27 SI MM ISABEL 1962-02-22 06:00:00 TS -25.6000 48.2000 main 129 129 O________OO_O_ jtwc_sh SH201962 -25.6000 48.2000 -1 -25.6000 48.2000 TC 25 -25.6000 48.2000 7 -25.6000 48.2000 TC 20 14 97
1962053S26048 1962 27 SI MM ISABEL 1962-02-22 09:00:00 TS -25.6838 48.9489 main 196 196 P________PP_P_ SH201962 -25.7032 48.9548 -1 -25.7032 48.9548 TC 25 -25.6959 49.0009 7 -25.6328 48.8852 TC 25 14 97
1962053S26048 1962 27 SI MM ISABEL 1962-02-22 12:00:00 TS -25.7728 49.6905 main 275 275 O________OP_O_ jtwc_sh SH201962 -25.8000 49.7000 -1 -25.8000 49.7000 TC 25 -25.7913 49.7621 7 -25.7000 49.6000 TC 30 13 98
1962053S26048 1962 27 SI MM ISABEL 1962-02-22 15:00:00 TS -25.8759 50.4018 main 346 346 P________PP_P_ SH201962 -25.8925 50.4101 -1 -25.8925 50.4101 TC 30 -25.8909 50.4423 7 -25.8277 50.3448 TC 32 12 101
1962053S26048 1962 27 SI MM ISABEL 1962-02-22 18:00:00 TS -26.0000 51.0000 main 406 406 O________OO_O_ jtwc_sh SH201962 -26.0000 51.0000 -1 -26.0000 51.0000 TC 35 -26.0000 51.0000 2 -26.0000 51.0000 TC 35 9 106
1962053S26048 1962 27 SI MM ISABEL 1962-02-22 21:00:00 TS -26.1432 51.4055 main 448 448 P________PP_P_ SH201962 -26.1269 51.3804 -1 -26.1269 51.3804 TC 35 -26.1269 51.4161 2 -26.1919 51.4452 TC 35 7 116
1962053S26048 1962 27 SI MM ISABEL 1962-02-23 00:00:00 TS -26.3224 51.7400 main 483 483 O________OP_O_ jtwc_sh SH201962 -26.3000 51.7000 -1 -26.3000 51.7000 TC 35 -26.2897 51.7600 2 -26.4000 51.8000 TC 35 7 121
1962053S26048 1962 27 SI MM ISABEL 1962-02-23 03:00:00 TS -26.5232 52.1023 main 527 527 P________PP_P_ SH201962 -26.5118 52.0758 -1 -26.5118 52.0758 TC 35 -26.5078 52.1236 2 -26.5616 52.1337 TC 35 9 122
1962053S26048 1962 27 SI MM ISABEL 1962-02-23 06:00:00 TS -26.8000 52.6000 main 585 585 O________OO_O_ jtwc_sh SH201962 -26.8000 52.6000 -1 -26.8000 52.6000 TC 35 -26.8000 52.6000 2 -26.8000 52.6000 TC 35 13 120
1962053S26048 1962 27 SI MM ISABEL 1962-02-23 09:00:00 TS -27.1757 53.3724 main 674 674 P________PP_P_ SH201962 -27.1629 53.3901 -1 -27.1629 53.3901 TC 30 -27.1638 53.3277 2 -27.2130 53.3819 TC 32 17 119
1962053S26048 1962 27 SI MM ISABEL 1962-02-23 12:00:00 TS -27.6244 54.2698 main 705 705 O________OP_O_ jtwc_sh SH201962 -27.6000 54.3000 -1 -27.6000 54.3000 TC 25 -27.5977 54.1790 2 -27.7000 54.3000 TC 30 18 120
1962053S26048 1962 27 SI MM ISABEL 1962-02-23 15:00:00 TS -28.0928 55.1414 main 750 749 P________PP_P_ SH201962 -28.0771 55.1580 -1 -28.0771 55.1580 TC 25 -28.0823 55.0911 2 -28.1346 55.1585 TC 27 18 123
1962053S26048 1962 27 SI MM ISABEL 1962-02-23 18:00:00 TS -28.6000 56.0000 main 805 805 O________OO_O_ jtwc_sh SH201962 -28.6000 56.0000 -1 -28.6000 56.0000 TC 25 -28.6000 56.0000 7 -28.6000 56.0000 TC 25 18 126
1962053S26048 1962 27 SI MM ISABEL 1962-02-23 21:00:00 TS -29.1384 56.8099 main 868 868 P________PP_P_ SH201962 -29.1419 56.8083 -1 -29.1419 56.8083 TC 25 -29.1356 56.8151 7 -29.1344 56.8081 TC 25 18 128
1962053S26048 1962 27 SI MM ISABEL 1962-02-24 00:00:00 TS -29.6994 57.6040 main 948 948 O________OP_O_ jtwc_sh SH201962 -29.7000 57.6000 -1 -29.7000 57.6000 TC 25 -29.6975 57.6160 7 -29.7000 57.6000 TC 25 18 129
1962053S26048 1962 27 SI MM ISABEL 1962-02-24 03:00:00 TS -30.2636 58.4026 main 1032 1032 P________PP_P_ SH201962 -30.2645 58.4005 -1 -30.2645 58.4005 TC 25 -30.2607 58.4090 7 -30.2645 58.4005 TC 25 18 129
1962053S26048 1962 27 SI MM ISABEL 1962-02-24 06:00:00 TS -30.8000 59.2000 main 1109 1109 O________OO_O_ jtwc_sh SH201962 -30.8000 59.2000 -1 -30.8000 59.2000 TC 25 -30.8000 59.2000 7 -30.8000 59.2000 TC 25 17 126
1962053S26048 1962 27 SI MM ISABEL 1962-02-24 09:00:00 TS -31.2650 59.9882 main 1189 1189 P________PP_P_ SH201962 -31.2645 60.0011 -1 -31.2645 60.0011 TC 25 -31.2664 59.9494 7 -31.2645 60.0011 TC 25 16 124
1962053S26048 1962 27 SI MM ISABEL 1962-02-24 12:00:00 TS -31.7021 60.7761 main 1260 1260 O________OP_O_ jtwc_sh SH201962 -31.7000 60.8000 -1 -31.7000 60.8000 TC 25 -31.7086 60.7042 7 -31.7000 60.8000 TC 25 16 123
1962053S26048 1962 27 SI MM ISABEL 1962-02-24 15:00:00 TS -32.1426 61.5497 main 1329 1329 P________PP_P_ SH201962 -32.1414 61.5715 -1 -32.1414 61.5715 TC 25 -32.1467 61.5065 7 -32.1409 61.5494 TC 25 16 123
1962053S26048 1962 27 SI MM ISABEL 1962-02-24 18:00:00 TS -32.6000 62.4000 main 1419 1419 O________OO_O_ jtwc_sh SH201962 -32.6000 62.4000 -1 -32.6000 62.4000 TC 25 -32.6000 62.4000 7 -32.6000 62.4000 TC 25 18 121
1962053S26048 1962 27 SI MM ISABEL 1962-02-24 21:00:00 TS -33.0891 63.3921 main 1515 1515 P________PP_P_ SH201962 -33.0912 63.3263 -1 -33.0912 63.3263 TC 25 -33.0814 63.4178 7 -33.0928 63.4978 TC 25 20 119
1962053S26048 1962 27 SI MM ISABEL 1962-02-25 00:00:00 TS -33.5958 64.5110 main 1609 1609 O________OP_O_ jtwc_sh SH201962 -33.6000 64.4000 -1 -33.6000 64.4000 TC 25 -33.5831 64.5440 7 -33.6000 64.7000 TC 25 22 118
1962053S26048 1962 27 SI MM ISABEL 1962-02-25 03:00:00 TS -34.1022 65.7267 main 1656 1588 P________PP_P_ SH201962 -34.1060 65.6465 -1 -34.1060 65.6465 TC 25 -34.0932 65.7485 7 -34.1038 65.8653 TC 22 23 116
1962053S26048 1962 27 SI MM ISABEL 1962-02-25 06:00:00 TS -34.6000 67.0000 main 1587 O________OO_O_ jtwc_sh SH201962 -34.6000 67.0000 -1 -34.6000 67.0000 TC 25 -34.6000 67.0000 7 -34.6000 67.0000 TC 20 23 115

About IBTrACS Database

This database is a web-friendly format of International Best Track Archive for Climate Stewardship (IBTrACS), a global best track data archive curated by NOAA dating back to 1842.

Updated: 2021-12-03